Weather at Locher Field

Public forecast

Using degrees Celsius for public forecast. Weather courtesy of forecast.io.

Closest aviation weather report (METAR) to Locher Field

Closest report is Bolzano Airport, 8.7 nm (16.2 km) SSW. Retrieved 2021/09/28 15:50 UTC (33 minutes ago):

LIPB 281550Z VRB03KT 9999 FEW110 24/13 Q1017 RMK MON LIB

Closest aviation forecast (TAF) to Locher Field

Closest forecast is Bolzano Airport, 8.7 nm (16.2 km) SSW. Retrieved 2021/09/28 12:21 UTC (4 hours ago):

TAF LIPB 281100Z 2812/2912 VRB05KT 9999 FEW060 TEMPO 2903/2910 RA